createdAt,value
2023-06-23T00:00:32.251Z,16.16
2023-06-23T00:03:02.068Z,16.16
2023-06-23T00:05:33.166Z,16.15
2023-06-23T00:08:02.966Z,16.17
2023-06-23T00:10:32.504Z,16.20
2023-06-23T00:13:04.036Z,16.23
2023-06-23T00:15:34.911Z,16.26
2023-06-23T00:18:04.735Z,16.30
2023-06-23T00:20:35.810Z,16.36
2023-06-23T00:23:05.396Z,16.39
2023-06-23T00:25:35.136Z,16.37
2023-06-23T00:28:04.956Z,16.38
2023-06-23T00:30:34.488Z,16.39
2023-06-23T00:33:05.253Z,16.37
2023-06-23T00:35:36.179Z,16.34
2023-06-23T00:38:06.163Z,16.28
2023-06-23T00:40:35.689Z,16.27
2023-06-23T00:43:07.361Z,16.24
2023-06-23T00:48:58.248Z,16.17
2023-06-23T00:51:27.904Z,16.17
2023-06-23T00:53:58.358Z,16.14
2023-06-23T00:56:28.392Z,16.07
2023-06-23T00:58:57.987Z,16.02
2023-06-23T01:01:28.140Z,15.97
2023-06-23T01:04:02.049Z,15.95
2023-06-23T01:06:42.899Z,15.95
2023-06-23T01:09:23.398Z,15.91
2023-06-23T01:12:03.004Z,15.83
2023-06-23T01:14:40.253Z,15.73
2023-06-23T01:17:18.320Z,15.65
2023-06-23T01:20:02.056Z,15.67
2023-06-23T01:22:40.934Z,15.68
2023-06-23T01:25:27.398Z,15.64
2023-06-23T01:28:17.284Z,15.64
2023-06-23T01:30:55.687Z,15.60
2023-06-23T01:33:43.948Z,15.59
2023-06-23T01:36:22.102Z,15.44
2023-06-23T01:38:59.164Z,15.41
2023-06-23T01:41:34.661Z,15.40
2023-06-23T01:44:15.574Z,15.39
2023-06-23T01:46:54.645Z,15.36
2023-06-23T01:49:29.909Z,15.24
2023-06-23T01:52:01.506Z,15.22
2023-06-23T01:54:32.829Z,15.27
2023-06-23T01:57:03.863Z,15.09
2023-06-23T01:59:36.312Z,14.84
2023-06-23T02:02:09.264Z,14.74
2023-06-23T02:04:42.712Z,14.86
2023-06-23T02:07:14.706Z,14.91
2023-06-23T02:09:47.529Z,14.78
2023-06-23T02:12:19.281Z,14.77
2023-06-23T02:14:52.022Z,14.88
2023-06-23T02:17:24.992Z,14.94
2023-06-23T02:19:55.746Z,14.89
2023-06-23T02:22:29.930Z,14.80
2023-06-23T02:25:02.104Z,14.66
2023-06-23T02:27:32.598Z,14.52
2023-06-23T02:30:02.587Z,14.45
2023-06-23T02:32:33.960Z,14.42
2023-06-23T02:35:04.175Z,14.53
2023-06-23T02:37:36.748Z,14.63
2023-06-23T02:40:13.139Z,14.73
2023-06-23T02:42:48.740Z,14.82
2023-06-23T02:45:23.488Z,14.86
2023-06-23T02:47:58.444Z,14.86
2023-06-23T02:50:34.328Z,14.84
2023-06-23T02:53:10.447Z,14.84
2023-06-23T02:55:46.068Z,14.76
2023-06-23T02:58:19.469Z,14.72
2023-06-23T03:00:51.834Z,14.66
2023-06-23T03:03:23.190Z,14.52
2023-06-23T03:05:53.277Z,14.50
2023-06-23T03:08:23.241Z,14.58
2023-06-23T03:10:55.846Z,14.69
2023-06-23T03:13:25.973Z,14.81
2023-06-23T03:16:01.937Z,14.87
2023-06-23T03:18:36.681Z,14.73
2023-06-23T03:21:08.036Z,14.71
2023-06-23T03:23:42.105Z,14.76
2023-06-23T03:26:14.371Z,14.84
2023-06-23T03:28:45.361Z,14.91
2023-06-23T03:31:18.044Z,14.88
2023-06-23T03:33:51.349Z,14.75
2023-06-23T03:36:25.446Z,14.79
2023-06-23T03:39:03.823Z,14.93
2023-06-23T03:41:35.928Z,15.01
2023-06-23T03:44:13.881Z,15.00
2023-06-23T03:50:03.711Z,15.17
2023-06-23T03:52:33.682Z,15.26
2023-06-23T03:55:05.127Z,15.35
2023-06-23T03:57:35.942Z,15.45
2023-06-23T04:00:11.067Z,15.53
2023-06-23T04:02:43.788Z,15.63
2023-06-23T04:05:17.031Z,15.69
2023-06-23T04:07:48.936Z,15.80
2023-06-23T04:10:22.781Z,15.94
2023-06-23T04:12:53.982Z,16.12
2023-06-23T04:15:26.651Z,16.25
2023-06-23T04:17:59.356Z,16.38
2023-06-23T04:20:32.937Z,16.56
2023-06-23T04:23:04.365Z,16.72
2023-06-23T04:25:36.348Z,16.92
2023-06-23T04:28:08.512Z,17.08
2023-06-23T04:30:40.164Z,17.22
2023-06-23T04:33:09.783Z,17.42
2023-06-23T04:35:41.317Z,17.63
2023-06-23T04:38:15.622Z,17.84
2023-06-23T04:40:51.681Z,17.98
2023-06-23T04:43:29.169Z,18.14
2023-06-23T04:46:06.008Z,18.35
2023-06-23T04:48:45.112Z,18.51
2023-06-23T04:51:19.357Z,18.72
2023-06-23T04:53:54.663Z,18.92
2023-06-23T04:56:32.936Z,19.12
2023-06-23T04:59:09.878Z,19.33
2023-06-23T05:01:41.166Z,19.51
2023-06-23T05:04:13.984Z,19.65
2023-06-23T05:06:49.057Z,19.77
2023-06-23T05:09:21.247Z,19.93
2023-06-23T05:11:51.136Z,20.12
2023-06-23T05:14:23.774Z,20.26
2023-06-23T05:16:55.011Z,20.41
2023-06-23T05:19:26.884Z,20.53
2023-06-23T05:22:01.088Z,20.66
2023-06-23T05:24:33.605Z,20.77
2023-06-23T05:27:09.563Z,20.94
2023-06-23T05:29:43.978Z,21.07
2023-06-23T05:32:18.775Z,21.23
2023-06-23T05:34:52.553Z,21.30
2023-06-23T05:37:25.908Z,21.34
2023-06-23T05:39:57.010Z,21.47
2023-06-23T05:42:28.405Z,21.57
2023-06-23T05:44:57.900Z,21.64
2023-06-23T05:47:34.185Z,21.76
2023-06-23T05:50:05.016Z,21.88
2023-06-23T05:52:39.402Z,21.99
2023-06-23T05:55:12.606Z,22.04
2023-06-23T05:57:43.804Z,22.10
2023-06-23T06:00:16.405Z,22.20
2023-06-23T06:02:50.531Z,22.28
2023-06-23T06:05:22.921Z,22.36
2023-06-23T06:07:55.197Z,22.37
2023-06-23T06:10:27.805Z,22.31
2023-06-23T06:12:59.343Z,22.41
2023-06-23T06:15:29.910Z,22.45
2023-06-23T06:18:02.956Z,22.57
2023-06-23T06:20:34.501Z,22.77
2023-06-23T06:23:24.052Z,22.88
2023-06-23T06:25:57.521Z,22.94
2023-06-23T06:28:28.209Z,22.91
2023-06-23T06:30:59.995Z,23.04
2023-06-23T06:33:32.069Z,23.18
2023-06-23T06:36:05.701Z,23.36
2023-06-23T06:38:40.112Z,23.50
2023-06-23T06:41:11.150Z,23.43
2023-06-23T06:43:40.769Z,23.50
2023-06-23T06:46:10.692Z,23.66
2023-06-23T06:49:59.243Z,23.84
2023-06-23T06:52:44.343Z,24.00
2023-06-23T06:55:20.594Z,24.12
2023-06-23T06:57:51.103Z,24.23
2023-06-23T07:00:23.144Z,24.18
2023-06-23T07:02:53.745Z,24.25
2023-06-23T07:05:25.104Z,24.20
2023-06-23T07:07:55.185Z,24.24
2023-06-23T07:10:24.789Z,24.37
2023-06-23T07:12:54.407Z,24.50
2023-06-23T07:15:24.320Z,24.68
2023-06-23T07:17:54.198Z,24.73
2023-06-23T07:20:26.438Z,24.80
2023-06-23T07:22:56.171Z,24.89
2023-06-23T07:25:25.781Z,24.95
2023-06-23T07:27:55.510Z,25.10
2023-06-23T07:30:25.303Z,25.00
2023-06-23T07:32:55.273Z,25.09
2023-06-23T07:35:26.276Z,25.18
2023-06-23T07:37:55.862Z,25.22
2023-06-23T07:40:25.568Z,25.32
2023-06-23T07:42:55.322Z,25.42
2023-06-23T07:45:25.191Z,25.46
2023-06-23T07:47:54.937Z,25.57
2023-06-23T07:50:27.630Z,25.62
2023-06-23T07:52:57.481Z,25.66
2023-06-23T07:55:27.236Z,25.76
2023-06-23T07:57:57.235Z,25.88
2023-06-23T08:00:26.851Z,25.69
2023-06-23T08:02:56.583Z,25.40
2023-06-23T08:05:27.981Z,25.55
2023-06-23T08:07:57.490Z,25.69
2023-06-23T08:10:27.141Z,25.59
2023-06-23T08:12:56.572Z,25.77
2023-06-23T08:15:26.758Z,25.95
2023-06-23T08:17:57.129Z,26.06
2023-06-23T08:20:28.350Z,26.14
2023-06-23T08:22:57.970Z,26.29
2023-06-23T08:25:27.512Z,26.45
2023-06-23T08:27:57.520Z,26.51
2023-06-23T08:30:33.337Z,26.55
2023-06-23T08:33:04.100Z,26.65
2023-06-23T08:35:35.390Z,26.71
2023-06-23T08:38:05.227Z,26.73
2023-06-23T08:40:35.624Z,26.80
2023-06-23T08:43:05.700Z,26.95
2023-06-23T08:45:37.373Z,27.09
2023-06-23T08:48:07.877Z,27.26
2023-06-23T08:50:39.335Z,27.41
2023-06-23T08:53:09.001Z,27.17
2023-06-23T08:55:38.977Z,26.95
2023-06-23T08:58:08.564Z,26.86
2023-06-23T09:00:39.361Z,26.70
2023-06-23T09:03:09.166Z,26.74
2023-06-23T09:05:42.488Z,26.80
2023-06-23T09:08:12.732Z,26.83
2023-06-23T09:10:42.329Z,26.80
2023-06-23T09:13:24.757Z,26.59
2023-06-23T09:16:02.503Z,26.49
2023-06-23T09:18:40.712Z,26.46
2023-06-23T09:21:12.353Z,26.62
2023-06-23T09:23:42.373Z,26.90
2023-06-23T09:26:21.908Z,27.18
2023-06-23T09:28:52.232Z,27.37
2023-06-23T09:31:23.313Z,27.60
2023-06-23T09:33:54.394Z,27.69
2023-06-23T09:36:25.362Z,27.58
2023-06-23T09:38:55.162Z,27.33
2023-06-23T09:41:28.493Z,27.19
2023-06-23T09:44:00.229Z,26.83
2023-06-23T09:49:57.207Z,26.16
2023-06-23T09:52:29.157Z,26.17
2023-06-23T09:54:59.541Z,26.00
2023-06-23T09:57:29.112Z,25.87
2023-06-23T10:00:00.077Z,25.66
2023-06-23T10:02:34.641Z,25.73
2023-06-23T10:05:08.439Z,25.91
2023-06-23T10:07:38.310Z,25.96
2023-06-23T10:10:20.767Z,26.03
2023-06-23T10:12:52.107Z,26.43
2023-06-23T10:15:23.424Z,26.83
2023-06-23T10:17:54.393Z,27.18
2023-06-23T10:20:25.492Z,27.35
2023-06-23T10:22:59.610Z,27.48
2023-06-23T10:25:29.905Z,27.66
2023-06-23T10:28:03.817Z,27.65
2023-06-23T10:30:34.706Z,27.60
2023-06-23T10:33:06.514Z,27.60
2023-06-23T10:35:40.421Z,27.66
2023-06-23T10:38:12.128Z,27.87
2023-06-23T10:40:42.740Z,27.91
2023-06-23T10:43:15.189Z,27.86
2023-06-23T10:45:45.393Z,27.92
2023-06-23T10:48:15.475Z,28.07
2023-06-23T10:50:49.101Z,28.10
2023-06-23T10:53:20.864Z,27.99
2023-06-23T10:56:02.920Z,27.80
2023-06-23T10:58:52.545Z,27.84
2023-06-23T11:01:22.181Z,27.97
2023-06-23T11:03:55.182Z,27.74
2023-06-23T11:06:38.512Z,27.58
2023-06-23T11:09:46.993Z,27.47
2023-06-23T11:12:33.704Z,27.60
2023-06-23T11:15:18.282Z,27.60
2023-06-23T11:17:50.475Z,27.63
2023-06-23T11:20:33.954Z,27.56
2023-06-23T11:23:08.963Z,27.61
2023-06-23T11:25:44.530Z,27.84
2023-06-23T11:28:34.970Z,27.92
2023-06-23T11:31:14.414Z,27.87
2023-06-23T11:33:45.685Z,27.94
2023-06-23T11:36:19.062Z,27.94
2023-06-23T11:38:50.112Z,28.02
2023-06-23T11:41:28.218Z,28.17
2023-06-23T11:44:00.554Z,28.33
2023-06-23T11:46:33.579Z,28.38
2023-06-23T11:49:12.232Z,28.33
2023-06-23T11:51:42.404Z,28.39
2023-06-23T11:54:13.494Z,28.45
2023-06-23T11:56:44.414Z,28.54
2023-06-23T11:59:15.932Z,28.62
2023-06-23T12:01:47.057Z,28.65
2023-06-23T12:04:17.598Z,28.66
2023-06-23T12:06:47.322Z,28.86
2023-06-23T12:09:18.334Z,29.03
2023-06-23T12:11:49.987Z,29.12
2023-06-23T12:14:19.358Z,29.24
2023-06-23T12:16:49.118Z,29.27
2023-06-23T12:19:18.569Z,29.23
2023-06-23T12:21:48.180Z,29.23
2023-06-23T12:24:22.699Z,29.27
2023-06-23T12:26:55.024Z,29.32
2023-06-23T12:29:25.787Z,29.44
2023-06-23T12:32:00.347Z,29.42
2023-06-23T12:34:38.381Z,29.22
2023-06-23T12:37:11.371Z,29.02
2023-06-23T12:39:43.425Z,28.97
2023-06-23T12:42:13.122Z,28.83
2023-06-23T12:44:42.982Z,28.66
2023-06-23T12:50:08.445Z,28.59
2023-06-23T12:52:37.991Z,28.75
2023-06-23T12:55:09.382Z,29.06
2023-06-23T12:57:38.840Z,29.27
2023-06-23T13:00:11.352Z,29.41
2023-06-23T13:02:40.914Z,29.41
2023-06-23T13:05:12.286Z,29.43
2023-06-23T13:07:41.768Z,29.29
2023-06-23T13:10:12.982Z,28.94
2023-06-23T13:12:42.602Z,28.62
2023-06-23T13:15:12.862Z,28.69
2023-06-23T13:17:42.461Z,28.75
2023-06-23T13:20:14.646Z,28.85
2023-06-23T13:22:44.489Z,29.01
2023-06-23T13:25:14.388Z,29.09
2023-06-23T13:27:43.808Z,29.18
2023-06-23T13:30:14.123Z,28.96
2023-06-23T13:32:43.784Z,28.71
2023-06-23T13:35:14.852Z,28.47
2023-06-23T13:37:44.279Z,28.09
2023-06-23T13:40:15.350Z,28.02
2023-06-23T13:42:45.640Z,28.20
2023-06-23T13:45:15.346Z,28.42
2023-06-23T13:47:44.962Z,28.65
2023-06-23T13:50:16.681Z,28.78
2023-06-23T13:52:47.904Z,28.45
2023-06-23T13:55:18.792Z,27.97
2023-06-23T13:57:48.571Z,27.75
2023-06-23T14:00:19.579Z,27.70
2023-06-23T14:02:49.331Z,27.79
2023-06-23T14:05:20.614Z,27.98
2023-06-23T14:07:50.382Z,27.95
2023-06-23T14:10:19.858Z,27.81
2023-06-23T14:12:51.774Z,27.62
2023-06-23T14:15:21.486Z,27.49
2023-06-23T14:17:51.719Z,27.45
2023-06-23T14:20:23.063Z,27.44
2023-06-23T14:22:52.785Z,27.65
2023-06-23T14:25:22.644Z,27.83
2023-06-23T14:27:52.485Z,27.91
2023-06-23T14:30:22.177Z,27.86
2023-06-23T14:32:52.209Z,27.88
2023-06-23T14:35:23.492Z,27.94
2023-06-23T14:37:53.193Z,27.83
2023-06-23T14:40:22.890Z,27.82
2023-06-23T14:42:52.754Z,27.83
2023-06-23T14:45:22.337Z,27.72
2023-06-23T14:47:51.986Z,27.59
2023-06-23T14:50:23.548Z,27.59
2023-06-23T14:52:53.228Z,27.59
2023-06-23T14:55:22.758Z,27.62
2023-06-23T14:57:52.403Z,27.57
2023-06-23T15:00:22.840Z,27.52
2023-06-23T15:02:52.611Z,27.32
2023-06-23T15:05:23.615Z,27.31
2023-06-23T15:07:53.540Z,27.34
2023-06-23T15:10:23.246Z,27.34
2023-06-23T15:12:52.851Z,27.30
2023-06-23T15:15:22.623Z,27.20
2023-06-23T15:17:52.202Z,27.09
2023-06-23T15:20:23.550Z,27.00
2023-06-23T15:22:53.439Z,26.95
2023-06-23T15:25:23.231Z,26.84
2023-06-23T15:27:52.726Z,26.72
2023-06-23T15:30:22.301Z,26.53
2023-06-23T15:32:52.581Z,26.37
2023-06-23T15:35:23.971Z,26.21
2023-06-23T15:37:55.667Z,26.12
2023-06-23T15:40:25.723Z,26.06
2023-06-23T15:42:55.443Z,25.93
2023-06-23T15:45:24.933Z,25.82
2023-06-23T15:49:56.863Z,25.67
2023-06-23T15:52:26.562Z,25.65
2023-06-23T15:54:57.710Z,25.53
2023-06-23T15:57:27.319Z,25.47
2023-06-23T15:59:56.955Z,25.43
2023-06-23T16:02:27.144Z,25.41
2023-06-23T16:04:58.472Z,25.32
2023-06-23T16:07:28.349Z,25.18
2023-06-23T16:09:59.074Z,25.11
2023-06-23T16:12:28.811Z,25.11
2023-06-23T16:14:58.693Z,25.10
2023-06-23T16:17:28.505Z,25.13
2023-06-23T16:19:59.767Z,25.09
2023-06-23T16:22:29.306Z,25.04
2023-06-23T16:24:59.802Z,25.03
2023-06-23T16:27:29.703Z,25.00
2023-06-23T16:29:59.342Z,24.96
2023-06-23T16:32:29.143Z,24.93
2023-06-23T16:35:02.084Z,24.91
2023-06-23T16:37:31.806Z,24.86
2023-06-23T16:40:02.805Z,24.79
2023-06-23T16:42:32.616Z,24.75
2023-06-23T16:45:02.285Z,24.75
2023-06-23T16:47:32.872Z,24.73
2023-06-23T16:50:04.068Z,24.68
2023-06-23T16:52:33.648Z,24.64
2023-06-23T16:55:03.771Z,24.61
2023-06-23T16:57:36.366Z,24.59
2023-06-23T17:00:08.675Z,24.53
2023-06-23T17:02:38.616Z,24.47
2023-06-23T17:05:10.533Z,24.43
2023-06-23T17:07:39.914Z,24.38
2023-06-23T17:10:11.650Z,24.26
2023-06-23T17:12:41.275Z,24.21
2023-06-23T17:15:12.847Z,24.20
2023-06-23T17:17:42.429Z,24.19
2023-06-23T17:20:15.450Z,24.16
2023-06-23T17:22:45.975Z,24.13
2023-06-23T17:25:16.494Z,24.10
2023-06-23T17:27:46.141Z,24.03
2023-06-23T17:30:17.234Z,23.93
2023-06-23T17:32:47.926Z,23.85
2023-06-23T17:35:19.189Z,23.79
2023-06-23T17:37:48.863Z,23.68
2023-06-23T17:40:21.544Z,23.53
2023-06-23T17:42:51.333Z,23.38
2023-06-23T17:45:20.857Z,23.28
2023-06-23T17:47:51.090Z,23.22
2023-06-23T17:50:24.405Z,23.18
2023-06-23T17:52:55.757Z,23.17
2023-06-23T17:55:25.392Z,23.14
2023-06-23T17:57:55.012Z,23.09
2023-06-23T18:00:25.325Z,23.03
2023-06-23T18:02:55.241Z,22.96
2023-06-23T18:05:26.297Z,22.90
2023-06-23T18:07:56.049Z,22.83
2023-06-23T18:10:25.788Z,22.73
2023-06-23T18:12:55.536Z,22.61
2023-06-23T18:15:25.371Z,22.53
2023-06-23T18:17:55.334Z,22.47
2023-06-23T18:20:26.726Z,22.42
2023-06-23T18:22:56.306Z,22.42
2023-06-23T18:25:25.956Z,22.41
2023-06-23T18:27:55.754Z,22.40
2023-06-23T18:30:25.361Z,22.32
2023-06-23T18:32:55.151Z,22.26
2023-06-23T18:35:26.569Z,22.19
2023-06-23T18:37:56.191Z,22.07
2023-06-23T18:40:25.781Z,21.98
2023-06-23T18:42:55.834Z,21.94
2023-06-23T18:45:27.204Z,21.91
2023-06-23T18:49:57.298Z,21.81
2023-06-23T18:52:27.029Z,21.77
2023-06-23T18:54:58.810Z,21.71
2023-06-23T18:57:28.951Z,21.60
2023-06-23T18:59:58.625Z,21.48
2023-06-23T19:02:28.218Z,21.43
2023-06-23T19:04:59.206Z,21.35
2023-06-23T19:07:28.717Z,21.26
2023-06-23T19:09:58.465Z,21.22
2023-06-23T19:12:28.226Z,21.11
2023-06-23T19:14:57.978Z,20.98
2023-06-23T19:17:27.825Z,20.87
2023-06-23T19:20:02.651Z,20.77
2023-06-23T19:22:34.590Z,20.72
2023-06-23T19:25:04.464Z,20.66
2023-06-23T19:27:34.053Z,20.56
2023-06-23T19:30:03.519Z,20.49
2023-06-23T19:32:33.284Z,20.40
2023-06-23T19:35:04.286Z,20.31
2023-06-23T19:37:34.243Z,20.27
2023-06-23T19:40:04.905Z,20.20
2023-06-23T19:42:34.368Z,20.22
2023-06-23T19:45:03.892Z,20.18
2023-06-23T19:47:36.680Z,20.14
2023-06-23T19:50:09.696Z,20.08
2023-06-23T19:52:39.733Z,19.99
2023-06-23T19:55:10.058Z,19.88
2023-06-23T19:57:39.876Z,19.83
2023-06-23T20:00:13.225Z,19.73
2023-06-23T20:02:44.078Z,19.69
2023-06-23T20:05:15.868Z,19.67
2023-06-23T20:07:50.733Z,19.65
2023-06-23T20:10:22.129Z,19.62
2023-06-23T20:12:51.682Z,19.59
2023-06-23T20:15:21.345Z,19.57
2023-06-23T20:17:51.379Z,19.49
2023-06-23T20:20:23.074Z,19.48
2023-06-23T20:22:52.758Z,19.45
2023-06-23T20:25:22.701Z,19.43
2023-06-23T20:27:52.370Z,19.40
2023-06-23T20:30:21.910Z,19.39
2023-06-23T20:32:53.280Z,19.35
2023-06-23T20:35:24.382Z,19.29
2023-06-23T20:37:54.377Z,19.22
2023-06-23T20:40:23.919Z,19.13
2023-06-23T20:42:53.984Z,19.08
2023-06-23T20:45:24.789Z,19.03
2023-06-23T20:47:54.761Z,18.97
2023-06-23T20:50:25.889Z,18.91
2023-06-23T20:52:55.341Z,18.86
2023-06-23T20:55:24.988Z,18.75
2023-06-23T20:57:54.611Z,18.68
2023-06-23T21:00:24.374Z,18.62
2023-06-23T21:02:54.086Z,18.55
2023-06-23T21:05:25.393Z,18.48
2023-06-23T21:07:55.056Z,18.46
2023-06-23T21:10:39.265Z,18.40
2023-06-23T21:13:08.753Z,18.37
2023-06-23T21:15:38.331Z,18.36
2023-06-23T21:18:08.394Z,18.35
2023-06-23T21:20:39.869Z,18.24
2023-06-23T21:23:09.674Z,18.17
2023-06-23T21:25:39.288Z,18.13
2023-06-23T21:28:08.969Z,18.15
2023-06-23T21:30:38.692Z,18.12
2023-06-23T21:33:08.448Z,18.11
2023-06-23T21:35:40.377Z,18.07
2023-06-23T21:38:12.119Z,18.08
2023-06-23T21:40:42.392Z,18.05
2023-06-23T21:43:12.164Z,18.03
2023-06-23T21:45:41.832Z,18.09
2023-06-23T21:49:56.313Z,18.11
2023-06-23T21:52:25.775Z,18.08
2023-06-23T21:54:55.372Z,18.06
2023-06-23T21:57:25.743Z,18.05
2023-06-23T21:59:55.232Z,18.04
2023-06-23T22:02:24.955Z,18.02
2023-06-23T22:04:56.427Z,17.98
2023-06-23T22:07:26.051Z,17.92
2023-06-23T22:09:55.589Z,17.85
2023-06-23T22:12:25.302Z,17.76
2023-06-23T22:14:54.858Z,17.68
2023-06-23T22:17:24.453Z,17.66
2023-06-23T22:19:55.351Z,17.64
2023-06-23T22:22:25.233Z,17.51
2023-06-23T22:24:54.901Z,17.27
2023-06-23T22:27:25.735Z,17.26
2023-06-23T22:29:55.436Z,17.35
2023-06-23T22:32:25.023Z,17.36
2023-06-23T22:34:56.121Z,17.16
2023-06-23T22:37:27.055Z,17.01
2023-06-23T22:39:56.951Z,17.03
2023-06-23T22:42:26.651Z,16.98
2023-06-23T22:44:56.107Z,16.76
2023-06-23T22:47:25.843Z,16.62
2023-06-23T22:49:56.887Z,16.73
2023-06-23T22:52:28.416Z,16.63
2023-06-23T22:54:58.056Z,16.56
2023-06-23T22:57:27.884Z,16.55
2023-06-23T22:59:57.445Z,16.53
2023-06-23T23:02:27.545Z,16.62
2023-06-23T23:04:58.877Z,16.66
2023-06-23T23:07:29.362Z,16.54
2023-06-23T23:09:58.852Z,16.48
2023-06-23T23:12:28.495Z,16.42
2023-06-23T23:14:58.146Z,16.42
2023-06-23T23:17:27.982Z,16.46
2023-06-23T23:20:01.543Z,16.51
2023-06-23T23:22:31.276Z,16.44
2023-06-23T23:25:01.797Z,16.37
2023-06-23T23:27:37.068Z,16.33
2023-06-23T23:30:09.211Z,16.37
2023-06-23T23:32:39.888Z,16.39
2023-06-23T23:35:12.627Z,16.38
2023-06-23T23:37:43.383Z,16.24
2023-06-23T23:40:14.724Z,16.21
2023-06-23T23:42:44.993Z,16.22
2023-06-23T23:45:15.824Z,16.25
2023-06-23T23:47:47.179Z,16.24
2023-06-23T23:50:18.331Z,16.13
2023-06-23T23:52:47.931Z,16.01
2023-06-23T23:55:17.626Z,16.09
2023-06-23T23:57:47.428Z,16.19
